createdAt,value
2022-08-22T00:03:01.582Z,3.60
2022-08-22T00:03:30.578Z,1.70
2022-08-22T00:08:32.451Z,1.70
2022-08-22T00:13:40.332Z,1.30
2022-08-22T00:18:59.634Z,2.00
2022-08-22T00:24:18.887Z,1.80
2022-08-22T00:30:03.917Z,1.80
2022-08-22T00:35:19.942Z,1.30
2022-08-22T00:40:50.629Z,1.40
2022-08-22T00:46:12.568Z,1.20
2022-08-22T00:51:48.010Z,1.20
2022-08-22T00:57:12.008Z,1.60
2022-08-22T01:02:52.572Z,1.50
2022-08-22T01:08:25.829Z,1.80
2022-08-22T01:13:49.668Z,1.60
2022-08-22T01:18:59.679Z,2.40
2022-08-22T01:24:20.413Z,2.40
2022-08-22T01:30:00.819Z,3.40
2022-08-22T01:35:36.788Z,4.00
2022-08-22T01:41:30.215Z,3.80
2022-08-22T01:46:47.268Z,3.50
2022-08-22T01:52:00.025Z,3.30
2022-08-22T01:57:07.927Z,4.20
2022-08-22T02:02:41.114Z,4.10
2022-08-22T02:07:54.581Z,4.30
2022-08-22T02:13:14.877Z,4.30
2022-08-22T02:18:41.551Z,5.30
2022-08-22T02:24:17.226Z,5.80
2022-08-22T02:29:39.506Z,5.20
2022-08-22T02:35:23.155Z,6.40
2022-08-22T02:41:10.706Z,7.10
2022-08-22T02:46:30.184Z,6.70
2022-08-22T02:51:47.749Z,7.30
2022-08-22T02:56:58.025Z,6.20
2022-08-22T03:02:28.633Z,6.60
2022-08-22T03:07:42.591Z,5.80
2022-08-22T03:13:03.107Z,6.40
2022-08-22T03:18:33.697Z,6.60
2022-08-22T03:24:20.292Z,7.00
2022-08-22T03:29:38.846Z,6.40
2022-08-22T03:35:09.777Z,7.40
2022-08-22T03:40:43.135Z,7.20
2022-08-22T03:45:58.351Z,6.40
2022-08-22T03:51:28.514Z,6.30
2022-08-22T03:56:54.157Z,5.80
2022-08-22T04:02:42.575Z,5.90
2022-08-22T04:07:58.753Z,6.20
2022-08-22T04:13:10.065Z,5.70
2022-08-22T04:18:48.540Z,5.80
2022-08-22T04:23:56.622Z,7.00
2022-08-22T04:29:43.293Z,7.70
2022-08-22T04:35:05.549Z,8.20
2022-08-22T04:40:21.953Z,8.10
2022-08-22T04:45:50.739Z,8.00
2022-08-22T04:51:22.331Z,10.20
2022-08-22T04:56:33.024Z,9.30
2022-08-22T05:01:56.517Z,9.20
2022-08-22T05:07:24.644Z,12.20
2022-08-22T05:12:36.055Z,10.40
2022-08-22T05:17:40.609Z,8.90
2022-08-22T05:22:47.124Z,10.70
2022-08-22T05:27:56.469Z,11.70
2022-08-22T05:33:25.567Z,11.30
2022-08-22T05:38:39.218Z,11.90
2022-08-22T05:43:49.596Z,12.50
2022-08-22T05:48:57.590Z,12.00
2022-08-22T05:54:14.518Z,11.70
2022-08-22T05:59:26.199Z,10.60
2022-08-22T06:04:43.256Z,11.30
2022-08-22T06:10:22.743Z,12.90
2022-08-22T06:15:56.263Z,10.70
2022-08-22T06:21:02.857Z,12.30
2022-08-22T06:26:05.949Z,9.60
2022-08-22T06:31:29.630Z,7.70
2022-08-22T06:36:34.208Z,9.70
2022-08-22T06:42:05.046Z,9.10
2022-08-22T06:47:11.737Z,8.70
2022-08-22T06:52:25.389Z,8.80
2022-08-22T06:57:35.459Z,8.40
2022-08-22T07:02:44.087Z,9.70
2022-08-22T07:07:53.314Z,9.70
2022-08-22T07:12:57.625Z,9.10
2022-08-22T07:18:02.522Z,7.30
2022-08-22T07:23:09.731Z,6.40
2022-08-22T07:28:31.800Z,6.60
2022-08-22T07:39:20.080Z,7.00
2022-08-22T07:44:30.114Z,7.20
2022-08-22T07:49:53.218Z,8.20
2022-08-22T07:55:02.682Z,7.20
2022-08-22T08:00:12.545Z,7.20
2022-08-22T08:05:15.856Z,6.70
2022-08-22T08:10:24.182Z,6.20
2022-08-22T08:15:50.558Z,6.00
2022-08-22T08:20:59.372Z,5.70
2022-08-22T08:26:20.912Z,5.70
2022-08-22T08:31:31.147Z,5.80
2022-08-22T08:36:41.825Z,5.30
2022-08-22T08:42:04.946Z,6.00
2022-08-22T08:47:17.306Z,4.80
2022-08-22T08:53:00.615Z,4.20
2022-08-22T08:58:18.053Z,3.60
2022-08-22T09:03:40.516Z,3.80
2022-08-22T09:08:56.556Z,3.60
2022-08-22T09:14:08.562Z,4.90
2022-08-22T09:19:32.329Z,5.60
2022-08-22T09:25:00.867Z,5.80
2022-08-22T09:30:12.793Z,6.80
2022-08-22T09:35:24.258Z,7.80
2022-08-22T09:40:53.733Z,8.40
2022-08-22T09:46:18.558Z,8.40
2022-08-22T09:51:31.450Z,9.00
2022-08-22T09:57:05.227Z,8.40
2022-08-22T10:02:30.899Z,9.70
2022-08-22T10:08:13.015Z,8.80
2022-08-22T10:13:27.235Z,9.90
2022-08-22T10:18:53.918Z,10.20
2022-08-22T10:24:07.994Z,11.40
2022-08-22T10:29:46.564Z,11.00
2022-08-22T10:35:03.464Z,12.40
2022-08-22T10:40:24.070Z,11.80
2022-08-22T10:45:36.669Z,12.50
2022-08-22T10:50:59.663Z,13.00
2022-08-22T10:56:17.226Z,12.10
2022-08-22T11:01:41.512Z,13.70
2022-08-22T11:06:53.644Z,12.40
2022-08-22T11:12:35.228Z,13.00
2022-08-22T11:18:17.782Z,11.20
2022-08-22T11:24:00.559Z,12.50
2022-08-22T11:29:56.876Z,12.70
2022-08-22T11:35:08.979Z,14.10
2022-08-22T11:40:45.586Z,14.70
2022-08-22T11:45:52.655Z,15.60
2022-08-22T11:51:15.110Z,15.70
2022-08-22T11:56:50.057Z,15.50
2022-08-22T12:01:59.603Z,15.00
2022-08-22T12:07:20.270Z,17.40
2022-08-22T12:12:50.410Z,17.50
2022-08-22T12:18:11.747Z,18.00
2022-08-22T12:23:43.285Z,15.60
2022-08-22T12:29:40.071Z,18.60
2022-08-22T12:35:14.665Z,15.80
2022-08-22T12:40:28.189Z,17.10
2022-08-22T12:46:13.176Z,18.80
2022-08-22T12:51:32.630Z,17.10
2022-08-22T12:56:50.609Z,18.00
2022-08-22T13:01:57.103Z,15.40
2022-08-22T13:07:19.867Z,16.30
2022-08-22T13:12:34.364Z,16.50
2022-08-22T13:17:37.339Z,18.20
2022-08-22T13:22:45.727Z,16.90
2022-08-22T13:27:51.708Z,17.10
2022-08-22T13:33:02.076Z,17.70
2022-08-22T13:38:29.695Z,15.70
2022-08-22T13:43:38.030Z,16.50
2022-08-22T13:48:50.293Z,19.60
2022-08-22T13:54:10.938Z,19.50
2022-08-22T13:59:47.141Z,17.60
2022-08-22T14:04:59.670Z,16.60
2022-08-22T14:10:14.683Z,20.20
2022-08-22T14:15:23.678Z,17.50
2022-08-22T14:20:32.307Z,19.20
2022-08-22T14:25:40.783Z,18.80
2022-08-22T14:31:00.923Z,20.30
2022-08-22T14:36:15.659Z,16.90
2022-08-22T14:41:55.729Z,17.60
2022-08-22T14:47:32.288Z,17.60
2022-08-22T14:52:38.090Z,19.10
2022-08-22T14:58:03.304Z,14.70
2022-08-22T15:03:10.784Z,17.50
2022-08-22T15:13:29.512Z,16.60
2022-08-22T15:18:32.554Z,16.10
2022-08-22T15:23:45.123Z,17.70
2022-08-22T15:29:02.089Z,16.70
2022-08-22T15:34:11.348Z,19.00
2022-08-22T15:40:03.048Z,17.90
2022-08-22T15:45:38.551Z,17.50
2022-08-22T15:51:05.109Z,19.10
2022-08-22T15:56:31.379Z,20.70
2022-08-22T16:01:43.819Z,19.90
2022-08-22T16:06:58.359Z,23.40
2022-08-22T16:12:06.526Z,23.00
2022-08-22T16:17:39.814Z,22.60
2022-08-22T16:23:07.707Z,26.00
2022-08-22T16:28:41.770Z,21.70
2022-08-22T16:33:51.681Z,18.80
2022-08-22T16:38:57.097Z,26.20
2022-08-22T16:44:30.197Z,26.10
2022-08-22T16:49:35.808Z,24.50
2022-08-22T16:54:44.271Z,24.90
2022-08-22T17:00:05.477Z,25.50
2022-08-22T17:05:24.640Z,25.80
2022-08-22T17:10:40.466Z,25.40
2022-08-22T17:16:07.432Z,28.10
2022-08-22T17:21:30.708Z,26.50
2022-08-22T17:26:44.026Z,29.50
2022-08-22T17:31:54.633Z,33.70
2022-08-22T17:37:26.213Z,29.40
2022-08-22T17:42:46.313Z,30.80
2022-08-22T17:48:02.736Z,30.90
2022-08-22T17:53:32.073Z,28.00
2022-08-22T17:58:45.544Z,27.40
2022-08-22T18:03:57.905Z,29.40
2022-08-22T18:09:18.336Z,29.00
2022-08-22T18:14:41.514Z,30.50
2022-08-22T18:20:04.896Z,30.50
2022-08-22T18:25:16.200Z,27.70
2022-08-22T18:30:29.748Z,28.70
2022-08-22T18:35:53.901Z,30.40
2022-08-22T18:41:20.712Z,30.20
2022-08-22T18:46:41.020Z,28.70
2022-08-22T18:51:43.715Z,26.30
2022-08-22T18:56:54.143Z,27.50
2022-08-22T19:02:05.082Z,24.80
2022-08-22T19:07:28.463Z,25.70
2022-08-22T19:12:52.564Z,25.90
2022-08-22T19:18:04.291Z,25.80
2022-08-22T19:23:36.048Z,23.80
2022-08-22T19:28:42.562Z,23.80
2022-08-22T19:33:49.036Z,27.40
2022-08-22T19:39:08.991Z,23.60
2022-08-22T19:44:33.223Z,24.50
2022-08-22T19:49:39.506Z,24.90
2022-08-22T19:54:54.181Z,22.80
2022-08-22T20:00:09.947Z,21.30
2022-08-22T20:05:29.987Z,23.30
2022-08-22T20:10:51.423Z,22.10
2022-08-22T20:16:13.766Z,22.20
2022-08-22T20:21:41.672Z,19.80
2022-08-22T20:27:10.004Z,19.70
2022-08-22T20:32:15.233Z,20.40
2022-08-22T20:37:35.988Z,19.80
2022-08-22T20:42:47.738Z,18.70
2022-08-22T20:47:51.191Z,17.40
2022-08-22T20:53:13.116Z,19.10
2022-08-22T20:58:33.424Z,18.80
2022-08-22T21:03:43.658Z,20.10
2022-08-22T21:09:08.005Z,20.40
2022-08-22T21:14:25.550Z,21.80
2022-08-22T21:19:29.557Z,22.50
2022-08-22T21:24:31.476Z,22.50
2022-08-22T21:29:42.450Z,22.50
2022-08-22T21:34:49.027Z,18.50
2022-08-22T21:40:16.472Z,19.70
2022-08-22T21:45:33.402Z,15.80
2022-08-22T21:50:38.168Z,14.20
2022-08-22T21:55:47.955Z,12.70
2022-08-22T22:01:00.742Z,8.00
2022-08-22T22:06:05.782Z,6.90
2022-08-22T22:11:12.686Z,6.70
2022-08-22T22:21:23.443Z,5.80
2022-08-22T22:26:26.244Z,4.90
2022-08-22T22:31:31.840Z,5.70
2022-08-22T22:36:37.062Z,5.60
2022-08-22T22:41:38.966Z,5.30
2022-08-22T22:46:41.017Z,5.10
2022-08-22T22:51:50.574Z,5.20
2022-08-22T22:57:06.077Z,4.90
2022-08-22T23:02:23.821Z,5.10
2022-08-22T23:07:26.632Z,4.80
2022-08-22T23:12:28.817Z,5.90
2022-08-22T23:17:31.301Z,4.90
2022-08-22T23:22:33.692Z,5.80
2022-08-22T23:27:36.818Z,5.80
2022-08-22T23:32:39.314Z,5.60
2022-08-22T23:37:41.267Z,6.30
2022-08-22T23:42:43.242Z,8.20
2022-08-22T23:47:45.430Z,8.40
2022-08-22T23:52:47.923Z,8.30
2022-08-22T23:57:50.009Z,8.60
